Terminal Aerodrome Forecast
Issued by NWS

Home | Current Version | Previous Version | Text Only | Print | Product List | Glossary On
Versions: 1 2 3 4 5 6 7 8 9 10 11 12 13
676
FTUS41 KBTV 221737
TAFRUT
TAF
KRUT 221737Z 2218/2318 00000KT P6SM SCT120
     FM230100 VRB03KT P6SM BKN080
     FM230400 VRB03KT 4SM BR BKN030
     FM230900 14004KT 2SM BR BKN015
     FM231400 17004KT P6SM SCT035
     FM231700 23007KT P6SM SCT050=

USA.gov is the U.S. government's official web portal to all federal, state and local government web resources and services.